Time;durP1;ratioP1;P1;durP2;ratioP2;P2;SDS_P1;SDS_P2;PMS_P1;PMS_P2;Temp;Humidity;BMP_temperature;BMP_pressure;BME280_temperature;BME280_humidity;BME280_pressure;Samples;Min_cycle;Max_cycle;Signal;HPM_P1;HPM_P2
2021/05/07 00:02:16;;;;;;;;;;;;;;;21.62;46.74;100647.56;5038234;28;737;-60
2021/05/07 00:04:41;;;;;;;;;;;;;;;21.88;45.99;100645.84;5038190;28;783;-65
2021/05/07 00:07:07;;;;;;;;;;;;;;;21.89;46.01;100643.88;5037638;28;1913;-64
2021/05/07 00:09:32;;;;;;;;;;;;;;;22.00;45.76;100639.75;5037505;28;954;-65
2021/05/07 00:11:58;;;;;;;;;;;;;;;21.34;47.53;100639.28;5036390;28;782;-60
2021/05/07 00:14:24;;;;;;;;;;;;;;;21.20;47.93;100637.34;5038243;28;746;-65
2021/05/07 00:16:52;;;;;;;;;;;;;;;20.90;48.36;100640.72;5037723;28;871;-64
2021/05/07 00:19:18;;;;;;;;;;;;;;;21.44;47.25;100644.59;5037750;28;819;-62
2021/05/07 00:21:45;;;;;;;;;;;;;;;21.50;47.02;100646.13;5037359;28;1101;-65
2021/05/07 00:24:10;;;;;;;;;;;;;;;21.84;46.14;100644.03;5019605;28;959;-62
2021/05/07 00:26:36;;;;;;;;;;;;;;;21.74;46.35;100636.78;5037451;28;836;-65
2021/05/07 00:29:01;;;;;;;;;;;;;;;21.94;45.98;100632.69;5037437;28;1975;-62
2021/05/07 00:31:27;;;;;;;;;;;;;;;22.04;45.86;100646.28;5037558;28;760;-62
2021/05/07 00:33:52;;;;;;;;;;;;;;;21.32;47.65;100649.81;5037379;28;822;-60
2021/05/07 00:36:18;;;;;;;;;;;;;;;21.24;47.95;100664.38;5020080;28;1108;-64
2021/05/07 00:38:43;;;;;;;;;;;;;;;21.06;47.74;100655.88;5019789;28;1209;-65
2021/05/07 00:41:09;;;;;;;;;;;;;;;21.47;47.12;100662.50;5037280;28;804;-60
2021/05/07 00:43:37;;;;;;;;;;;;;;;21.73;46.41;100662.81;5037135;28;843;-61
2021/05/07 00:46:02;;;;;;;;;;;;;;;21.96;45.82;100665.59;5037182;28;764;-61
2021/05/07 00:48:28;;;;;;;;;;;;;;;21.96;45.84;100671.13;5019608;28;1984;-60
2021/05/07 00:50:53;;;;;;;;;;;;;;;22.09;45.52;100664.75;5035988;28;807;-66
2021/05/07 00:53:19;;;;;;;;;;;;;;;21.72;46.48;100671.44;5036793;28;951;-66
2021/05/07 00:55:46;;;;;;;;;;;;;;;21.31;47.58;100670.34;5036662;28;830;-64
2021/05/07 00:58:14;;;;;;;;;;;;;;;21.04;47.51;100674.72;5019711;28;1124;-61
2021/05/07 01:00:40;;;;;;;;;;;;;;;21.38;47.43;100667.97;5019206;28;1248;-66
2021/05/07 01:03:07;;;;;;;;;;;;;;;21.62;46.74;100664.16;5019391;28;1199;-61
2021/05/07 01:05:33;;;;;;;;;;;;;;;21.88;46.05;100659.69;5037107;28;828;-66
2021/05/07 01:07:58;;;;;;;;;;;;;;;21.90;46.01;100658.56;5036669;28;1906;-66
2021/05/07 01:10:25;;;;;;;;;;;;;;;21.83;46.30;100647.91;5019074;28;1350;-66
2021/05/07 01:12:51;;;;;;;;;;;;;;;21.52;46.91;100646.66;5019433;28;1168;-62
2021/05/07 01:15:16;;;;;;;;;;;;;;;21.35;47.45;100647.28;5036909;28;742;-65
2021/05/07 01:18:07;;;;;;;;;;;;;;;20.95;47.70;100654.47;5036799;28;764;-66
2021/05/07 01:20:41;;;;;;;;;;;;;;;21.32;47.50;100647.91;5036816;28;1106;-67
2021/05/07 01:23:08;;;;;;;;;;;;;;;21.56;46.96;100648.78;5036437;28;796;-62
2021/05/07 01:25:35;;;;;;;;;;;;;;;21.69;46.59;100646.00;5035872;28;951;-66
2021/05/07 01:28:01;;;;;;;;;;;;;;;21.42;47.45;100652.38;5036440;28;1910;-62
2021/05/07 01:30:28;;;;;;;;;;;;;;;21.32;47.47;100644.28;5035037;28;1185;-62
2021/05/07 01:32:54;;;;;;;;;;;;;;;21.33;47.59;100648.69;5036564;28;818;-63
2021/05/07 01:35:20;;;;;;;;;;;;;;;21.02;48.27;100649.34;5037041;28;763;-65
2021/05/07 01:37:47;;;;;;;;;;;;;;;21.14;48.01;100649.66;5034848;28;847;-64
2021/05/07 01:40:25;;;;;;;;;;;;;;;21.19;47.72;100646.75;5035966;28;967;-62
2021/05/07 01:42:52;;;;;;;;;;;;;;;21.19;47.79;100641.22;5036216;28;779;-65
2021/05/07 01:45:18;;;;;;;;;;;;;;;21.17;47.83;100646.25;5018790;28;1107;-61
2021/05/07 01:47:44;;;;;;;;;;;;;;;21.11;47.78;100646.66;5036332;28;1933;-62
2021/05/07 01:50:10;;;;;;;;;;;;;;;21.11;47.75;100639.22;5036479;28;799;-61
2021/05/07 01:52:36;;;;;;;;;;;;;;;21.10;47.97;100643.09;5018765;28;1213;-63
2021/05/07 01:55:24;;;;;;;;;;;;;;;21.09;47.86;100632.34;5034788;28;1159;-61
2021/05/07 01:57:49;;;;;;;;;;;;;;;21.09;47.84;100638.69;5035892;28;753;-66
2021/05/07 02:00:16;;;;;;;;;;;;;;;21.11;47.80;100636.44;5036086;28;732;-66
2021/05/07 02:02:44;;;;;;;;;;;;;;;21.12;47.82;100637.25;5018761;28;1164;-60
2021/05/07 02:05:18;;;;;;;;;;;;;;;21.02;47.97;100643.81;5018356;28;939;-60
2021/05/07 02:07:45;;;;;;;;;;;;;;;20.98;48.25;100635.28;5035889;28;1906;-63
2021/05/07 02:10:11;;;;;;;;;;;;;;;21.07;47.93;100634.59;5035578;28;1030;-67
2021/05/07 02:12:37;;;;;;;;;;;;;;;20.78;48.59;100635.72;5034889;28;1147;-63
2021/05/07 02:15:07;;;;;;;;;;;;;;;21.09;48.00;100632.34;5036094;28;851;-68
2021/05/07 02:17:32;;;;;;;;;;;;;;;21.05;47.94;100631.31;5020649;28;1087;-68
2021/05/07 02:19:58;;;;;;;;;;;;;;;21.06;48.01;100639.31;5022385;28;954;-62
2021/05/07 02:22:23;;;;;;;;;;;;;;;20.97;48.12;100646.66;5040016;28;778;-62
2021/05/07 02:25:04;;;;;;;;;;;;;;;20.73;48.87;100646.84;5039691;28;1022;-63
2021/05/07 02:27:30;;;;;;;;;;;;;;;20.90;48.50;100649.00;5038588;28;1914;-65
2021/05/07 02:29:56;;;;;;;;;;;;;;;20.82;48.61;100650.56;5022142;28;1345;-67
2021/05/07 02:32:21;;;;;;;;;;;;;;;20.92;48.46;100655.06;5022521;28;1229;-67
2021/05/07 02:34:47;;;;;;;;;;;;;;;21.18;47.84;100642.38;5039915;28;787;-63
2021/05/07 02:37:12;;;;;;;;;;;;;;;21.33;47.11;100645.94;5039659;28;720;-60
2021/05/07 02:39:37;;;;;;;;;;;;;;;21.39;47.02;100644.69;5039359;28;958;-61
2021/05/07 02:42:04;;;;;;;;;;;;;;;21.38;46.96;100648.59;5022162;28;1202;-60
2021/05/07 02:44:29;;;;;;;;;;;;;;;21.40;47.07;100646.34;5040181;28;805;-61
2021/05/07 02:47:03;;;;;;;;;;;;;;;21.26;47.23;100643.59;5039148;28;843;-60
2021/05/07 02:49:29;;;;;;;;;;;;;;;20.96;48.20;100658.88;5039752;28;1987;-60
2021/05/07 02:51:54;;;;;;;;;;;;;;;20.79;48.46;100657.50;5039349;28;854;-60
2021/05/07 02:57:55;;;;;;;;;;;;;;;21.11;47.71;100661.31;5039101;28;598;-62
2021/05/07 03:00:22;;;;;;;;;;;;;;;21.02;48.08;100660.38;5021376;28;848;-66
2021/05/07 03:02:48;;;;;;;;;;;;;;;20.97;48.11;100657.72;5038139;28;784;-61
2021/05/07 03:05:13;;;;;;;;;;;;;;;20.79;48.55;100656.66;5039231;28;792;-60
2021/05/07 03:07:39;;;;;;;;;;;;;;;20.88;48.20;100652.09;5037447;28;1909;-63
2021/05/07 03:10:05;;;;;;;;;;;;;;;20.99;48.11;100645.22;5038839;28;1021;-65
2021/05/07 03:12:30;;;;;;;;;;;;;;;21.11;47.72;100646.66;5039382;28;768;-64
2021/05/07 03:14:56;;;;;;;;;;;;;;;21.31;47.40;100650.97;5038894;28;784;-65
2021/05/07 03:17:22;;;;;;;;;;;;;;;21.36;47.03;100653.59;5039000;28;760;-61
2021/05/07 03:19:47;;;;;;;;;;;;;;;21.61;46.36;100657.78;5022075;28;1365;-60
2021/05/07 03:22:13;;;;;;;;;;;;;;;21.70;46.09;100664.25;5038810;28;748;-57
2021/05/07 03:25:02;;;;;;;;;;;;;;;21.70;46.23;100660.66;5038526;28;983;-61
2021/05/07 03:27:28;;;;;;;;;;;;;;;21.70;46.09;100652.38;5038233;28;1981;-52
2021/05/07 03:29:53;;;;;;;;;;;;;;;21.58;46.37;100652.09;5038796;28;957;-65
2021/05/07 03:32:18;;;;;;;;;;;;;;;21.16;47.41;100652.91;5021402;28;1213;-55
2021/05/07 03:34:48;;;;;;;;;;;;;;;21.14;47.37;100655.19;5038659;28;787;-56
2021/05/07 03:37:13;;;;;;;;;;;;;;;20.78;48.53;100661.41;5038583;28;818;-64
2021/05/07 03:39:39;;;;;;;;;;;;;;;21.29;47.25;100655.97;5037347;28;958;-59
2021/05/07 03:42:04;;;;;;;;;;;;;;;21.36;47.17;100653.59;5038451;28;772;-64
2021/05/07 03:44:30;;;;;;;;;;;;;;;21.59;46.36;100654.53;5020974;28;882;-67
2021/05/07 03:46:55;;;;;;;;;;;;;;;21.70;46.13;100650.41;5038473;28;791;-59
2021/05/07 03:49:21;;;;;;;;;;;;;;;21.71;46.12;100656.75;5038241;28;1910;-64
2021/05/07 03:51:46;;;;;;;;;;;;;;;21.74;45.97;100653.38;5038775;28;811;-62
2021/05/07 03:54:12;;;;;;;;;;;;;;;21.63;46.27;100651.94;5030068;28;1497;-60
2021/05/07 03:56:37;;;;;;;;;;;;;;;21.51;46.48;100658.00;5037878;28;739;-60
2021/05/07 03:59:02;;;;;;;;;;;;;;;21.11;47.66;100664.09;5023036;28;760;-60
2021/05/07 04:01:28;;;;;;;;;;;;;;;21.32;46.94;100663.66;5018730;28;784;-53
2021/05/07 04:03:56;;;;;;;;;;;;;;;21.26;47.25;100659.38;5020473;28;776;-51
2021/05/07 04:06:22;;;;;;;;;;;;;;;21.35;46.96;100652.81;5038343;28;806;-59
2021/05/07 04:09:01;;;;;;;;;;;;;;;21.26;46.69;100651.06;5037573;28;1979;-60
2021/05/07 04:11:38;;;;;;;;;;;;;;;21.34;46.52;100655.88;5037814;28;748;-64
2021/05/07 04:14:03;;;;;;;;;;;;;;;21.35;46.30;100643.69;5038139;28;764;-61
2021/05/07 04:16:29;;;;;;;;;;;;;;;21.19;46.92;100643.19;5037825;28;803;-63
2021/05/07 04:18:55;;;;;;;;;;;;;;;21.23;46.75;100643.41;5036767;28;1131;-65
2021/05/07 04:21:21;;;;;;;;;;;;;;;21.28;46.76;100646.03;5037704;28;1470;-60
2021/05/07 04:23:46;;;;;;;;;;;;;;;21.29;46.87;100631.09;5037300;28;932;-67
2021/05/07 04:26:12;;;;;;;;;;;;;;;21.29;46.63;100631.91;5037467;28;803;-60
2021/05/07 04:28:37;;;;;;;;;;;;;;;21.26;46.84;100637.25;5053097;28;1980;-60
2021/05/07 04:31:02;;;;;;;;;;;;;;;21.27;46.98;100639.69;5036226;28;816;-58
2021/05/07 04:33:28;;;;;;;;;;;;;;;21.36;46.49;100637.00;5037772;28;840;-65
2021/05/07 04:35:53;;;;;;;;;;;;;;;21.42;46.49;100632.19;5037755;28;879;-63
2021/05/07 04:38:19;;;;;;;;;;;;;;;21.35;46.78;100643.69;5036964;28;981;-49
2021/05/07 04:40:44;;;;;;;;;;;;;;;21.48;46.45;100647.56;5036759;28;891;-61
2021/05/07 04:43:10;;;;;;;;;;;;;;;21.40;46.60;100640.81;5037427;28;859;-51
2021/05/07 04:45:35;;;;;;;;;;;;;;;21.46;46.57;100647.88;5037056;28;867;-62
2021/05/07 04:48:01;;;;;;;;;;;;;;;21.57;46.01;100642.13;5037345;28;1902;-51
2021/05/07 04:50:26;;;;;;;;;;;;;;;21.55;46.40;100649.94;5037323;28;867;-57
2021/05/07 04:52:52;;;;;;;;;;;;;;;21.45;46.46;100649.00;5037031;28;1417;-59
2021/05/07 04:55:35;;;;;;;;;;;;;;;21.29;46.80;100656.78;5036707;28;1116;-52
2021/05/07 04:58:04;;;;;;;;;;;;;;;21.41;46.42;100663.78;5036805;28;827;-46
2021/05/07 05:00:30;;;;;;;;;;;;;;;21.47;46.33;100668.84;5037642;28;907;-46
2021/05/07 05:02:55;;;;;;;;;;;;;;;21.49;46.49;100674.06;5052401;28;1361;-47
2021/05/07 05:05:21;;;;;;;;;;;;;;;21.51;46.36;100678.19;5037183;28;772;-53
2021/05/07 05:07:50;;;;;;;;;;;;;;;21.51;46.39;100678.19;5036651;28;1975;-62
2021/05/07 05:10:16;;;;;;;;;;;;;;;21.61;46.12;100676.34;5036534;28;975;-54
2021/05/07 05:12:42;;;;;;;;;;;;;;;21.59;46.29;100668.38;5036631;28;764;-60
2021/05/07 05:15:07;;;;;;;;;;;;;;;21.52;46.34;100668.78;5036774;28;748;-52
2021/05/07 05:17:33;;;;;;;;;;;;;;;21.66;46.19;100673.50;5036618;28;787;-55
2021/05/07 05:19:58;;;;;;;;;;;;;;;21.53;46.36;100675.97;5036596;28;1559;-55
2021/05/07 05:22:24;;;;;;;;;;;;;;;21.51;46.34;100671.84;5036709;28;751;-56
2021/05/07 05:24:54;;;;;;;;;;;;;;;21.46;46.71;100671.94;5051575;28;1273;-62
2021/05/07 05:27:27;;;;;;;;;;;;;;;21.65;46.09;100667.13;5036617;28;1902;-58
2021/05/07 05:29:52;;;;;;;;;;;;;;;21.75;45.88;100662.50;5036633;28;752;-66
2021/05/07 05:32:17;;;;;;;;;;;;;;;21.55;46.41;100661.81;5036622;28;748;-58
2021/05/07 05:34:44;;;;;;;;;;;;;;;21.42;46.84;100660.69;5036641;28;783;-49
2021/05/07 05:37:11;;;;;;;;;;;;;;;20.99;47.95;100667.34;5036797;28;782;-57
2021/05/07 05:39:36;;;;;;;;;;;;;;;21.41;46.93;100659.03;5051396;28;967;-64
2021/05/07 05:42:01;;;;;;;;;;;;;;;21.75;45.75;100668.03;5036232;28;787;-52
2021/05/07 05:44:27;;;;;;;;;;;;;;;21.79;45.66;100677.34;5036404;28;815;-60
2021/05/07 05:46:52;;;;;;;;;;;;;;;22.01;45.27;100680.16;5036289;28;836;-56
2021/05/07 05:49:18;;;;;;;;;;;;;;;21.75;45.73;100688.22;5036391;28;1914;-63
2021/05/07 05:51:43;;;;;;;;;;;;;;;21.52;46.24;100698.41;5036399;28;870;-60
2021/05/07 05:54:09;;;;;;;;;;;;;;;21.40;46.46;100687.81;5035843;28;1018;-51
2021/05/07 05:56:34;;;;;;;;;;;;;;;21.56;46.50;100702.19;5034269;28;904;-63
2021/05/07 05:59:00;;;;;;;;;;;;;;;21.73;46.09;100695.19;5032529;28;925;-61
2021/05/07 06:01:25;;;;;;;;;;;;;;;21.83;45.65;100692.22;5033982;28;880;-53
2021/05/07 06:03:51;;;;;;;;;;;;;;;21.75;45.76;100701.25;5035540;28;868;-60
2021/05/07 06:06:16;;;;;;;;;;;;;;;21.48;46.49;100697.34;5035970;28;843;-62
2021/05/07 06:08:42;;;;;;;;;;;;;;;21.56;46.29;100695.81;5035616;28;1977;-54
2021/05/07 06:11:07;;;;;;;;;;;;;;;21.15;47.25;100703.00;5035789;28;768;-47
2021/05/07 06:13:33;;;;;;;;;;;;;;;21.75;45.87;100702.03;5035582;28;816;-54
2021/05/07 06:15:58;;;;;;;;;;;;;;;22.02;45.13;100700.34;5035840;28;788;-55
2021/05/07 06:18:24;;;;;;;;;;;;;;;21.79;45.61;100686.47;5036180;28;784;-64
2021/05/07 06:20:49;;;;;;;;;;;;;;;21.59;46.13;100673.06;5034891;28;1907;-48
2021/05/07 06:23:15;;;;;;;;;;;;;;;21.67;45.87;100670.41;5035780;28;955;-61
2021/05/07 06:25:59;;;;;;;;;;;;;;;21.24;46.59;100667.13;5035837;28;893;-60
2021/05/07 06:28:25;;;;;;;;;;;;;;;21.64;46.28;100671.03;5033176;28;1909;-54
2021/05/07 06:30:55;;;;;;;;;;;;;;;22.08;45.07;100663.09;5035730;28;819;-64
2021/05/07 06:33:21;;;;;;;;;;;;;;;21.70;45.84;100663.44;5022926;28;819;-62
2021/05/07 06:35:46;;;;;;;;;;;;;;;21.74;45.82;100658.91;5026785;28;786;-65
2021/05/07 06:38:12;;;;;;;;;;;;;;;21.58;45.98;100652.09;5014715;28;1225;-63
2021/05/07 06:40:37;;;;;;;;;;;;;;;21.20;46.69;100639.28;5036126;28;815;-51
2021/05/07 06:43:03;;;;;;;;;;;;;;;21.60;46.35;100644.28;5035869;28;752;-64
2021/05/07 06:45:29;;;;;;;;;;;;;;;21.99;45.27;100648.38;5035567;28;796;-60
2021/05/07 06:47:54;;;;;;;;;;;;;;;22.09;44.89;100648.13;5035778;28;1902;-62
2021/05/07 06:50:21;;;;;;;;;;;;;;;21.73;45.72;100646.19;5035820;28;772;-48
2021/05/07 06:52:46;;;;;;;;;;;;;;;21.75;45.91;100655.00;5034491;28;1163;-55
2021/05/07 06:58:09;;;;;;;;;;;;;;;21.50;46.62;100646.13;5035645;28;844;-55
2021/05/07 07:00:34;;;;;;;;;;;;;;;21.91;45.67;100638.88;5050979;28;1298;-60
2021/05/07 07:02:59;;;;;;;;;;;;;;;21.93;45.48;100638.56;5037157;28;848;-58
2021/05/07 07:05:25;;;;;;;;;;;;;;;21.75;46.09;100635.63;5039050;28;819;-62
2021/05/07 07:07:52;;;;;;;;;;;;;;;21.55;46.28;100642.44;5039186;28;1983;-54
2021/05/07 07:10:17;;;;;;;;;;;;;;;21.23;46.07;100629.56;5038883;28;951;-53
2021/05/07 07:12:43;;;;;;;;;;;;;;;21.60;46.42;100633.22;5038943;28;859;-63
2021/05/07 07:15:08;;;;;;;;;;;;;;;22.07;45.21;100628.22;5039151;28;1052;-53
2021/05/07 07:17:34;;;;;;;;;;;;;;;22.01;45.42;100629.50;5038989;28;767;-49
2021/05/07 07:19:59;;;;;;;;;;;;;;;21.79;45.92;100617.25;5038693;28;996;-46
2021/05/07 07:22:25;;;;;;;;;;;;;;;21.92;45.34;100625.84;5039050;28;795;-58
2021/05/07 07:24:50;;;;;;;;;;;;;;;21.23;46.28;100624.03;5038624;28;1009;-58
2021/05/07 07:27:16;;;;;;;;;;;;;;;21.80;46.17;100623.63;5038542;28;811;-60
2021/05/07 07:29:41;;;;;;;;;;;;;;;22.18;45.08;100617.72;5034863;28;1902;-60
2021/05/07 07:32:07;;;;;;;;;;;;;;;21.97;45.67;100622.97;5038595;28;942;-60
2021/05/07 07:34:33;;;;;;;;;;;;;;;22.29;44.99;100615.53;5021133;28;1202;-59
2021/05/07 07:37:00;;;;;;;;;;;;;;;22.11;44.85;100617.34;5038680;28;804;-59
2021/05/07 07:39:26;;;;;;;;;;;;;;;21.83;44.77;100612.75;5038397;28;998;-58
2021/05/07 07:41:51;;;;;;;;;;;;;;;21.88;45.84;100620.09;5038442;28;832;-64
2021/05/07 07:44:17;;;;;;;;;;;;;;;22.11;45.30;100607.09;5038850;28;867;-57
2021/05/07 07:46:43;;;;;;;;;;;;;;;22.43;44.68;100607.97;5038349;28;799;-50
2021/05/07 07:49:09;;;;;;;;;;;;;;;22.14;45.13;100600.91;5038260;28;1982;-49
2021/05/07 07:51:35;;;;;;;;;;;;;;;22.09;45.35;100603.00;5038444;28;874;-49
2021/05/07 07:54:00;;;;;;;;;;;;;;;21.82;45.56;100600.03;5038149;28;1027;-60
2021/05/07 07:56:26;;;;;;;;;;;;;;;21.81;45.96;100603.09;5038020;28;891;-60
2021/05/07 07:58:51;;;;;;;;;;;;;;;22.03;45.70;100600.38;5038228;28;792;-59
2021/05/07 08:01:17;;;;;;;;;;;;;;;22.49;44.61;100603.09;5038037;28;803;-55
2021/05/07 08:03:42;;;;;;;;;;;;;;;22.08;45.49;100602.19;5038343;28;844;-47
2021/05/07 08:06:08;;;;;;;;;;;;;;;22.07;45.54;100600.53;5038451;28;909;-56
2021/05/07 08:08:34;;;;;;;;;;;;;;;21.81;45.90;100587.34;5037685;28;1968;-45
2021/05/07 08:10:59;;;;;;;;;;;;;;;21.60;45.69;100591.72;5038116;28;836;-49
2021/05/07 08:13:28;;;;;;;;;;;;;;;21.90;46.24;100594.91;5038288;28;732;-56
2021/05/07 08:19:28;;;;;;;;;;;;;;;21.92;46.16;100593.44;5032984;28;1351;-47
2021/05/07 08:21:54;;;;;;;;;;;;;;;21.85;46.13;100599.44;5037713;28;1044;-48
2021/05/07 08:24:20;;;;;;;;;;;;;;;21.73;45.67;100584.47;5035501;28;1442;-51
2021/05/07 08:26:46;;;;;;;;;;;;;;;21.82;46.29;100582.63;5037722;28;800;-47
2021/05/07 08:29:11;;;;;;;;;;;;;;;22.17;45.48;100572.56;5025365;28;1973;-61
2021/05/07 08:31:37;;;;;;;;;;;;;;;22.44;44.85;100570.81;5037822;28;742;-63
2021/05/07 08:34:02;;;;;;;;;;;;;;;22.16;45.37;100568.19;5037909;28;764;-48
2021/05/07 08:36:28;;;;;;;;;;;;;;;21.99;46.00;100571.69;5037413;28;788;-54
2021/05/07 08:38:53;;;;;;;;;;;;;;;21.69;46.33;100567.72;5037113;28;951;-46
2021/05/07 08:41:19;;;;;;;;;;;;;;;21.76;46.48;100565.31;5018051;28;808;-46
2021/05/07 08:43:44;;;;;;;;;;;;;;;22.19;45.36;100564.78;5017685;28;877;-61
2021/05/07 08:46:10;;;;;;;;;;;;;;;22.47;44.62;100559.09;5017283;28;860;-46
2021/05/07 08:48:38;;;;;;;;;;;;;;;21.96;46.09;100560.41;5017618;28;1981;-51
2021/05/07 08:51:04;;;;;;;;;;;;;;;21.92;46.26;100562.16;5017544;28;772;-48
2021/05/07 08:53:30;;;;;;;;;;;;;;;21.82;46.44;100561.28;5019573;28;963;-48
2021/05/07 08:56:11;;;;;;;;;;;;;;;21.25;47.23;100555.41;5037522;28;753;-62
2021/05/07 08:58:39;;;;;;;;;;;;;;;21.99;46.25;100557.00;5036964;28;791;-54
2021/05/07 09:01:04;;;;;;;;;;;;;;;22.28;45.54;100550.19;5037211;28;759;-50
2021/05/07 09:03:47;;;;;;;;;;;;;;;22.06;45.95;100557.38;5036080;28;966;-47
2021/05/07 09:06:19;;;;;;;;;;;;;;;22.03;46.07;100558.00;5036792;28;763;-60
2021/05/07 09:08:48;;;;;;;;;;;;;;;21.79;46.50;100550.03;5051603;28;1914;-62
2021/05/07 09:11:14;;;;;;;;;;;;;;;21.43;47.16;100554.44;5036994;28;776;-62
2021/05/07 09:13:39;;;;;;;;;;;;;;;22.04;46.27;100551.34;5037003;28;767;-60
2021/05/07 09:16:05;;;;;;;;;;;;;;;22.27;45.66;100540.22;5036808;28;855;-63
2021/05/07 09:18:44;;;;;;;;;;;;;;;22.62;44.83;100548.72;5036913;28;775;-60
2021/05/07 09:21:10;;;;;;;;;;;;;;;22.21;45.92;100545.88;5036541;28;1028;-64
2021/05/07 09:23:39;;;;;;;;;;;;;;;21.96;46.88;100543.78;5036423;28;998;-49
2021/05/07 09:26:05;;;;;;;;;;;;;;;21.67;47.22;100542.28;5036615;28;835;-63
2021/05/07 09:28:30;;;;;;;;;;;;;;;21.24;48.54;100538.00;5035219;28;1973;-61
2021/05/07 09:31:08;;;;;;;;;;;;;;;21.59;47.62;100535.56;5051648;28;994;-53
2021/05/07 09:33:33;;;;;;;;;;;;;;;21.96;46.77;100532.72;5036669;28;756;-64
2021/05/07 09:35:58;;;;;;;;;;;;;;;21.99;46.74;100521.84;5051950;28;1262;-57
2021/05/07 09:38:24;;;;;;;;;;;;;;;22.03;46.63;100522.00;5036272;28;1001;-64
2021/05/07 09:40:49;;;;;;;;;;;;;;;21.87;46.87;100514.09;5051719;28;1224;-55
2021/05/07 09:43:17;;;;;;;;;;;;;;;21.87;46.75;100513.31;5036316;28;768;-52
2021/05/07 09:45:45;;;;;;;;;;;;;;;21.99;46.67;100509.94;5036685;28;776;-65
2021/05/07 09:48:20;;;;;;;;;;;;;;;22.01;46.63;100497.41;5036280;28;1909;-52
2021/05/07 09:50:46;;;;;;;;;;;;;;;22.13;46.34;100499.59;5036202;28;848;-47
2021/05/07 09:53:17;;;;;;;;;;;;;;;22.10;46.47;100491.91;5034592;28;1312;-53
2021/05/07 09:55:43;;;;;;;;;;;;;;;22.07;46.54;100502.81;5036365;28;728;-63
2021/05/07 09:58:08;;;;;;;;;;;;;;;22.01;46.55;100502.16;5036108;28;1024;-48
2021/05/07 10:00:34;;;;;;;;;;;;;;;22.08;46.38;100496.13;5036315;28;780;-61
2021/05/07 10:02:59;;;;;;;;;;;;;;;21.95;46.86;100489.56;5034397;28;951;-46
2021/05/07 10:05:27;;;;;;;;;;;;;;;21.78;46.98;100488.31;5035908;28;831;-57
2021/05/07 10:07:53;;;;;;;;;;;;;;;22.14;46.25;100486.56;5036075;28;1982;-64
2021/05/07 10:10:18;;;;;;;;;;;;;;;22.10;46.25;100483.59;5035783;28;999;-61
2021/05/07 10:12:44;;;;;;;;;;;;;;;22.27;45.84;100477.31;5036362;28;819;-61
2021/05/07 10:15:10;;;;;;;;;;;;;;;22.01;46.70;100468.94;5034692;28;1241;-56
2021/05/07 10:17:36;;;;;;;;;;;;;;;21.83;46.86;100474.34;5035996;28;807;-63
2021/05/07 10:20:02;;;;;;;;;;;;;;;21.98;46.81;100472.31;5050792;28;1050;-65
2021/05/07 10:22:37;;;;;;;;;;;;;;;22.07;46.48;100469.59;5036137;28;787;-61
2021/05/07 10:25:11;;;;;;;;;;;;;;;21.72;47.60;100464.69;5035256;28;1206;-54
2021/05/07 10:27:42;;;;;;;;;;;;;;;21.59;48.17;100473.84;5017687;28;2138;-60
2021/05/07 10:30:08;;;;;;;;;;;;;;;21.57;47.92;100467.84;5035804;28;821;-55
2021/05/07 10:32:35;;;;;;;;;;;;;;;21.10;49.33;100473.63;5036116;28;796;-63
2021/05/07 10:35:00;;;;;;;;;;;;;;;21.71;47.60;100468.56;5035650;28;891;-62
2021/05/07 10:37:39;;;;;;;;;;;;;;;22.27;46.16;100471.78;5036459;28;792;-63
2021/05/07 10:40:05;;;;;;;;;;;;;;;22.16;46.59;100468.50;5039699;28;1003;-51
2021/05/07 10:42:31;;;;;;;;;;;;;;;22.03;46.97;100472.19;5039737;28;761;-62
2021/05/07 10:44:57;;;;;;;;;;;;;;;22.06;46.48;100463.22;5039795;28;791;-64
2021/05/07 10:47:35;;;;;;;;;;;;;;;21.72;44.94;100466.66;5039596;28;812;-63
2021/05/07 10:50:14;;;;;;;;;;;;;;;21.90;47.35;100462.03;5039925;28;804;-61
2021/05/07 10:52:39;;;;;;;;;;;;;;;22.33;46.28;100458.59;5039690;28;720;-52
2021/05/07 10:55:06;;;;;;;;;;;;;;;22.47;45.73;100447.44;5039155;28;959;-52
2021/05/07 10:57:36;;;;;;;;;;;;;;;21.98;47.24;100444.63;5040055;28;736;-53
2021/05/07 11:00:05;;;;;;;;;;;;;;;22.14;46.70;100431.19;5039410;28;959;-62
2021/05/07 11:02:45;;;;;;;;;;;;;;;21.58;47.05;100409.41;5039375;28;740;-54
2021/05/07 11:05:11;;;;;;;;;;;;;;;21.77;48.03;100419.44;5019603;28;820;-64
2021/05/07 11:07:36;;;;;;;;;;;;;;;22.21;46.39;100407.41;5019714;28;1975;-61
2021/05/07 11:10:06;;;;;;;;;;;;;;;22.68;45.32;100403.34;5034318;28;963;-49
2021/05/07 11:12:31;;;;;;;;;;;;;;;22.09;46.80;100410.00;5039029;28;836;-49
2021/05/07 11:14:57;;;;;;;;;;;;;;;21.85;47.27;100405.66;5039045;28;1008;-49
2021/05/07 11:17:50;;;;;;;;;;;;;;;21.69;46.93;100418.28;5039081;28;827;-62
2021/05/07 11:20:17;;;;;;;;;;;;;;;21.72;47.91;100417.63;5038701;28;1486;-55
2021/05/07 11:22:42;;;;;;;;;;;;;;;22.13;46.86;100416.53;5039225;28;847;-47
2021/05/07 11:25:08;;;;;;;;;;;;;;;22.45;45.78;100399.88;5037810;28;1248;-48
2021/05/07 11:27:36;;;;;;;;;;;;;;;22.05;46.91;100397.94;5038981;28;1914;-47
2021/05/07 11:30:02;;;;;;;;;;;;;;;21.99;47.12;100399.19;5039035;28;875;-46
2021/05/07 11:32:29;;;;;;;;;;;;;;;21.77;47.44;100389.84;5038963;28;794;-46
2021/05/07 11:34:55;;;;;;;;;;;;;;;21.72;47.41;100389.16;5038745;28;775;-47
2021/05/07 11:37:21;;;;;;;;;;;;;;;22.12;46.67;100383.59;5038737;28;744;-62
2021/05/07 11:40:05;;;;;;;;;;;;;;;22.43;45.88;100372.47;5036568;28;1014;-65
2021/05/07 11:42:40;;;;;;;;;;;;;;;21.99;47.30;100382.59;5032525;28;876;-62
2021/05/07 11:45:07;;;;;;;;;;;;;;;21.80;47.60;100375.34;5038269;28;849;-51
2021/05/07 11:47:33;;;;;;;;;;;;;;;21.63;47.09;100376.09;5038614;28;1902;-53
2021/05/07 11:49:59;;;;;;;;;;;;;;;21.65;47.25;100373.00;5037893;28;884;-64
2021/05/07 11:52:39;;;;;;;;;;;;;;;22.08;47.14;100377.91;5038341;28;783;-62
2021/05/07 11:55:05;;;;;;;;;;;;;;;22.43;46.23;100363.34;5037863;28;999;-64
2021/05/07 12:00:46;;;;;;;;;;;;;;;22.01;47.32;100369.25;5038321;28;653;-59
2021/05/07 12:03:14;;;;;;;;;;;;;;;21.80;47.43;100364.28;5049711;28;1363;-63
2021/05/07 12:05:40;;;;;;;;;;;;;;;21.70;48.02;100347.97;5038159;28;772;-60
2021/05/07 12:08:06;;;;;;;;;;;;;;;22.29;46.42;100350.44;5038395;28;1909;-60
2021/05/07 12:10:32;;;;;;;;;;;;;;;22.51;45.92;100354.22;5037964;28;956;-48
2021/05/07 12:12:58;;;;;;;;;;;;;;;21.83;47.71;100347.03;5038298;28;800;-55
2021/05/07 12:15:30;;;;;;;;;;;;;;;21.70;48.00;100336.91;5053325;28;784;-61
2021/05/07 12:17:55;;;;;;;;;;;;;;;21.83;46.83;100338.72;5037855;28;780;-59
2021/05/07 12:20:22;;;;;;;;;;;;;;;21.66;47.92;100341.44;5037872;28;1041;-63
2021/05/07 12:22:51;;;;;;;;;;;;;;;22.07;47.04;100329.19;5038115;28;891;-51
2021/05/07 12:25:20;;;;;;;;;;;;;;;22.46;46.14;100341.34;5037601;28;954;-62
2021/05/07 12:27:46;;;;;;;;;;;;;;;21.90;47.43;100334.69;5037760;28;1914;-59
2021/05/07 12:30:15;;;;;;;;;;;;;;;21.83;47.72;100338.72;5037513;28;829;-54
2021/05/07 12:32:41;;;;;;;;;;;;;;;21.67;47.86;100343.06;5037935;28;828;-52
2021/05/07 12:35:07;;;;;;;;;;;;;;;21.48;47.89;100323.91;5038210;28;828;-50
2021/05/07 12:37:50;;;;;;;;;;;;;;;21.85;47.93;100324.56;5037246;28;799;-65
2021/05/07 12:40:16;;;;;;;;;;;;;;;22.33;46.52;100314.56;5036242;28;1224;-61
2021/05/07 12:42:41;;;;;;;;;;;;;;;22.30;46.50;100315.22;5037395;28;981;-55
2021/05/07 12:45:13;;;;;;;;;;;;;;;22.01;47.50;100306.38;5037664;28;780;-62
2021/05/07 12:47:38;;;;;;;;;;;;;;;21.68;48.24;100300.41;5037178;28;1977;-52
2021/05/07 12:50:04;;;;;;;;;;;;;;;21.66;47.44;100297.16;5037108;28;760;-64
2021/05/07 12:52:35;;;;;;;;;;;;;;;21.68;48.27;100286.59;5037143;28;803;-44
2021/05/07 12:55:01;;;;;;;;;;;;;;;22.08;47.13;100275.47;5035507;28;1218;-64
2021/05/07 12:57:35;;;;;;;;;;;;;;;22.42;46.43;100268.34;5037092;28;760;-64
2021/05/07 13:00:01;;;;;;;;;;;;;;;22.17;46.94;100283.78;5036426;28;756;-62
2021/05/07 13:02:27;;;;;;;;;;;;;;;21.79;48.05;100285.16;5036654;28;1205;-47
2021/05/07 13:04:52;;;;;;;;;;;;;;;21.63;48.15;100281.19;5036386;28;1179;-61
2021/05/07 13:07:18;;;;;;;;;;;;;;;21.54;47.93;100289.47;5037039;28;1191;-59